Bellefountain, Indiana
Current Conditions -  °F | °C
As of 7:53 AM on Thursday 27 Nov 2014 (Local Time) from KMIE Reporting Station
Overcast Overcast  
Wind Chill: -9°   Ceiling: 5000
Heat Index: -3°   Visibility: 7mi
Dew Point: -6°   Wind: 14mph
Humidity: 81%   Direction: 310°NW
Pressure: 30.22"   Gusts: NA
Location:  40.4312°N, 85.0058°W
Report Text: KMIE 271253Z 31012KT 7SM OVC050 M03/M06 A3022 RMK AO2 SLP240 T10281056
Loading
Personal Weather Stations






























Interactive Weather Map New forecast layout! Learn more

10-Day Weather Forecast

Advertisements
Track Severe Weather on mobile